Time;durP1;ratioP1;P1;durP2;ratioP2;P2;SDS_P1;SDS_P2;PMS_P1;PMS_P2;Temp;Humidity;BMP_temperature;BMP_pressure;BME280_temperature;BME280_humidity;BME280_pressure;Samples;Min_cycle;Max_cycle;Signal;HPM_P1;HPM_P2
2022/03/12 00:00:48;;;;;;;38.40;23.97;;;;;;;;;;4997085;28;20433;-77
2022/03/12 00:03:14;;;;;;;36.20;24.70;;;;;;;;;;4997183;28;20489;-77
2022/03/12 00:05:52;;;;;;;36.40;24.73;;;;;;;;;;4996975;28;20406;-78
2022/03/12 00:08:18;;;;;;;31.43;23.20;;;;;;;;;;4997366;28;20402;-77
2022/03/12 00:10:46;;;;;;;45.63;27.60;;;;;;;;;;4997485;28;20380;-75
2022/03/12 00:13:12;;;;;;;37.67;24.03;;;;;;;;;;4997026;28;20386;-75
2022/03/12 00:15:38;;;;;;;39.10;24.47;;;;;;;;;;4996856;28;20789;-75
2022/03/12 00:18:06;;;;;;;35.73;23.87;;;;;;;;;;4996832;28;20443;-78
2022/03/12 00:20:32;;;;;;;37.77;24.63;;;;;;;;;;4996858;28;20898;-77
2022/03/12 00:22:58;;;;;;;35.33;22.53;;;;;;;;;;4996779;28;20557;-74
2022/03/12 00:25:26;;;;;;;41.03;24.50;;;;;;;;;;4996781;28;20413;-77
2022/03/12 00:27:52;;;;;;;42.17;26.70;;;;;;;;;;4996755;28;20531;-76
2022/03/12 00:30:21;;;;;;;57.60;32.53;;;;;;;;;;4996609;28;20389;-73
2022/03/12 00:32:48;;;;;;;54.47;31.70;;;;;;;;;;4979147;28;20825;-74
2022/03/12 00:35:15;;;;;;;60.40;30.50;;;;;;;;;;4979192;28;20426;-72
2022/03/12 00:37:41;;;;;;;44.20;25.30;;;;;;;;;;4996540;28;20381;-75
2022/03/12 00:40:07;;;;;;;52.07;28.07;;;;;;;;;;4996514;28;20425;-76
2022/03/12 00:42:33;;;;;;;44.87;28.77;;;;;;;;;;4996495;28;20439;-77
2022/03/12 00:44:59;;;;;;;49.63;28.27;;;;;;;;;;4978921;28;20425;-78
2022/03/12 00:47:26;;;;;;;73.17;34.47;;;;;;;;;;4996413;28;20814;-78
2022/03/12 00:49:52;;;;;;;60.33;29.43;;;;;;;;;;4996364;28;20396;-77
2022/03/12 00:52:18;;;;;;;55.63;28.37;;;;;;;;;;4996275;28;20914;-77
2022/03/12 00:54:44;;;;;;;59.17;30.70;;;;;;;;;;4978733;28;20432;-79
2022/03/12 00:57:12;;;;;;;55.83;29.17;;;;;;;;;;4996140;28;20425;-79
2022/03/12 00:59:41;;;;;;;40.00;26.03;;;;;;;;;;4996040;28;20491;-78
2022/03/12 01:02:10;;;;;;;43.22;24.98;;;;;;;;;;4978468;28;20409;-74
2022/03/12 01:04:36;;;;;;;41.70;24.50;;;;;;;;;;4996184;28;20193;-78
2022/03/12 01:07:02;;;;;;;88.87;40.67;;;;;;;;;;4995800;28;20827;-78
2022/03/12 01:09:28;;;;;;;79.00;34.90;;;;;;;;;;4995933;28;20414;-79
2022/03/12 01:11:54;;;;;;;79.13;36.23;;;;;;;;;;4995927;28;20380;-77
2022/03/12 01:14:21;;;;;;;64.93;34.37;;;;;;;;;;4995784;28;20421;-79
2022/03/12 01:16:47;;;;;;;61.67;31.50;;;;;;;;;;4995802;28;20409;-77
2022/03/12 01:19:15;;;;;;;53.70;29.87;;;;;;;;;;4995713;28;20452;-78
2022/03/12 01:21:41;;;;;;;58.77;31.43;;;;;;;;;;4995726;28;20372;-77
2022/03/12 01:24:07;;;;;;;63.00;32.17;;;;;;;;;;4995868;28;20491;-79
2022/03/12 01:26:35;;;;;;;56.50;32.57;;;;;;;;;;4995712;28;20408;-79
2022/03/12 01:29:01;;;;;;;45.80;28.17;;;;;;;;;;4995593;28;20735;-79
2022/03/12 01:31:27;;;;;;;39.50;25.30;;;;;;;;;;4995498;28;20409;-79
2022/03/12 01:33:53;;;;;;;45.80;28.10;;;;;;;;;;4977378;28;20921;-79
2022/03/12 01:36:19;;;;;;;43.23;25.93;;;;;;;;;;4995494;28;20418;-79
2022/03/12 01:38:48;;;;;;;40.20;26.97;;;;;;;;;;4995358;28;20843;-79
2022/03/12 01:41:14;;;;;;;47.83;24.90;;;;;;;;;;4995367;28;20419;-79
2022/03/12 01:43:43;;;;;;;35.43;23.87;;;;;;;;;;4995254;28;20897;-79
2022/03/12 01:46:10;;;;;;;41.67;25.83;;;;;;;;;;4977993;28;20783;-80
2022/03/12 01:48:37;;;;;;;42.37;26.87;;;;;;;;;;4995217;28;20897;-80
2022/03/12 01:51:03;;;;;;;36.00;23.40;;;;;;;;;;4979021;28;20513;-79
2022/03/12 01:53:29;;;;;;;38.73;23.83;;;;;;;;;;4995706;28;20405;-80
2022/03/12 01:55:56;;;;;;;34.60;23.97;;;;;;;;;;4995299;28;20444;-80
2022/03/12 01:58:23;;;;;;;35.43;22.73;;;;;;;;;;4995077;28;20484;-79
2022/03/12 02:00:50;;;;;;;36.07;22.23;;;;;;;;;;4995301;28;20421;-76
2022/03/12 02:03:23;;;;;;;55.40;28.70;;;;;;;;;;4994927;28;20398;-78
2022/03/12 02:05:50;;;;;;;41.87;22.63;;;;;;;;;;4977415;28;20481;-79
2022/03/12 02:08:16;;;;;;;45.00;25.23;;;;;;;;;;4994915;28;20413;-79
2022/03/12 02:10:43;;;;;;;50.57;26.20;;;;;;;;;;4994947;28;20372;-77
2022/03/12 02:13:10;;;;;;;36.80;23.73;;;;;;;;;;4994718;28;20893;-79
2022/03/12 02:15:36;;;;;;;47.50;26.50;;;;;;;;;;4994610;28;20455;-79
2022/03/12 02:18:02;;;;;;;35.70;22.90;;;;;;;;;;4994680;28;20594;-79
2022/03/12 02:20:28;;;;;;;39.00;23.40;;;;;;;;;;4977175;28;20429;-77
2022/03/12 02:22:54;;;;;;;33.53;23.33;;;;;;;;;;4994693;28;20392;-78
2022/03/12 02:25:30;;;;;;;43.17;23.13;;;;;;;;;;4994597;28;20396;-78
2022/03/12 02:27:57;;;;;;;41.23;22.70;;;;;;;;;;4994575;28;20421;-80
2022/03/12 02:30:36;;;;;;;33.77;23.43;;;;;;;;;;4994459;28;20469;-72
2022/03/12 02:33:02;;;;;;;38.73;22.57;;;;;;;;;;4994482;28;20409;-73
2022/03/12 02:35:31;;;;;;;34.73;22.80;;;;;;;;;;4994329;28;20420;-76
2022/03/12 02:37:59;;;;;;;33.07;23.07;;;;;;;;;;4994258;28;20812;-77
2022/03/12 02:40:25;;;;;;;33.33;22.77;;;;;;;;;;4994415;28;20401;-72
2022/03/12 02:42:54;;;;;;;35.30;23.90;;;;;;;;;;4994267;28;20409;-76
2022/03/12 02:45:22;;;;;;;31.67;21.10;;;;;;;;;;4993404;28;20380;-76
2022/03/12 02:47:49;;;;;;;29.93;21.97;;;;;;;;;;4976765;28;20418;-77
2022/03/12 02:50:16;;;;;;;46.97;22.90;;;;;;;;;;4977073;28;20750;-79
2022/03/12 02:52:44;;;;;;;32.70;22.30;;;;;;;;;;4994194;28;20402;-78
2022/03/12 02:55:13;;;;;;;34.20;21.83;;;;;;;;;;4994251;28;20492;-79
2022/03/12 02:57:40;;;;;;;37.60;23.17;;;;;;;;;;4994100;28;20390;-77
2022/03/12 03:00:08;;;;;;;35.57;21.93;;;;;;;;;;4976642;28;20973;-77
2022/03/12 03:02:41;;;;;;;35.00;20.67;;;;;;;;;;4994023;28;20764;-80
2022/03/12 03:05:54;;;;;;;60.77;29.93;;;;;;;;;;4994403;28;20456;-76
2022/03/12 03:08:13;;;;;;;114.27;42.90;;;;;;;;;;4990884;28;20416;-80
2022/03/12 03:10:43;;;;;;;40.73;24.17;;;;;;;;;;4993906;28;20877;-79
2022/03/12 03:13:15;;;;;;;44.90;24.30;;;;;;;;;;4993987;28;20500;-80
2022/03/12 03:15:42;;;;;;;41.60;24.53;;;;;;;;;;4993983;28;20428;-78
2022/03/12 03:18:10;;;;;;;38.27;23.70;;;;;;;;;;4993839;28;20457;-77
2022/03/12 03:20:36;;;;;;;47.00;25.97;;;;;;;;;;4993873;28;20426;-79
2022/03/12 03:23:02;;;;;;;50.50;25.60;;;;;;;;;;4993859;28;20408;-79
2022/03/12 03:25:28;;;;;;;59.47;32.67;;;;;;;;;;4993913;28;20769;-79
2022/03/12 03:27:54;;;;;;;47.93;27.80;;;;;;;;;;4976436;28;20430;-80
2022/03/12 03:30:20;;;;;;;30.30;23.03;;;;;;;;;;4993994;28;20820;-80
2022/03/12 03:32:46;;;;;;;34.60;22.13;;;;;;;;;;4994816;28;20425;-74
2022/03/12 03:35:12;;;;;;;30.47;20.90;;;;;;;;;;4994470;28;20407;-79
2022/03/12 03:37:38;;;;;;;31.60;20.53;;;;;;;;;;4993740;28;20392;-79
2022/03/12 03:40:04;;;;;;;31.97;22.07;;;;;;;;;;4993739;28;20778;-79
2022/03/12 03:42:30;;;;;;;38.07;22.80;;;;;;;;;;4993820;28;20411;-80
2022/03/12 03:45:02;;;;;;;29.47;22.10;;;;;;;;;;4993691;28;20888;-79
2022/03/12 03:47:28;;;;;;;31.90;22.10;;;;;;;;;;4993698;28;20535;-80
2022/03/12 03:49:55;;;;;;;28.80;21.00;;;;;;;;;;4993672;28;20504;-80
2022/03/12 03:52:21;;;;;;;37.73;22.00;;;;;;;;;;4993668;28;20877;-79
2022/03/12 03:54:47;;;;;;;31.00;21.93;;;;;;;;;;4993595;28;20888;-79
2022/03/12 03:57:13;;;;;;;29.70;21.00;;;;;;;;;;4996083;28;20496;-78
2022/03/12 03:59:40;;;;;;;29.47;20.10;;;;;;;;;;4979680;28;21015;-77
2022/03/12 04:02:05;;;;;;;32.20;20.57;;;;;;;;;;4997151;28;20945;-80
2022/03/12 04:04:36;;;;;;;29.60;19.87;;;;;;;;;;4997152;28;20492;-80
2022/03/12 04:07:03;;;;;;;27.83;19.40;;;;;;;;;;4997149;28;20465;-79
2022/03/12 04:09:29;;;;;;;36.80;21.10;;;;;;;;;;4997079;28;20419;-77
2022/03/12 04:11:55;;;;;;;31.53;19.63;;;;;;;;;;4997121;28;20412;-79
2022/03/12 04:14:21;;;;;;;31.03;21.53;;;;;;;;;;4996930;28;20487;-78
2022/03/12 04:16:47;;;;;;;29.57;20.60;;;;;;;;;;4997030;28;20946;-79
2022/03/12 04:19:14;;;;;;;29.73;21.50;;;;;;;;;;4996874;28;20472;-79
2022/03/12 04:21:40;;;;;;;26.43;21.50;;;;;;;;;;4997107;28;20468;-78
2022/03/12 04:24:06;;;;;;;32.67;20.60;;;;;;;;;;4996813;28;20409;-79
2022/03/12 04:26:35;;;;;;;30.63;20.10;;;;;;;;;;4996760;28;20406;-79
2022/03/12 04:29:08;;;;;;;30.70;21.17;;;;;;;;;;4979238;28;20834;-78
2022/03/12 04:31:34;;;;;;;29.10;19.67;;;;;;;;;;4996648;28;20401;-79
2022/03/12 04:34:01;;;;;;;29.90;20.77;;;;;;;;;;4996898;28;20500;-77
2022/03/12 04:36:27;;;;;;;30.00;21.13;;;;;;;;;;4996593;28;20748;-79
2022/03/12 04:38:53;;;;;;;27.37;20.33;;;;;;;;;;4996396;28;20573;-79
2022/03/12 04:41:19;;;;;;;28.43;19.77;;;;;;;;;;4996495;28;20398;-80
2022/03/12 04:43:45;;;;;;;31.63;21.20;;;;;;;;;;4996477;28;20433;-79
2022/03/12 04:46:12;;;;;;;25.80;19.37;;;;;;;;;;4996392;28;20391;-80
2022/03/12 04:48:38;;;;;;;37.00;20.97;;;;;;;;;;4996395;28;20376;-75
2022/03/12 04:51:04;;;;;;;31.00;20.53;;;;;;;;;;4996309;28;20929;-80
2022/03/12 04:53:30;;;;;;;33.10;21.70;;;;;;;;;;4996341;28;20412;-79
2022/03/12 04:55:57;;;;;;;31.40;20.83;;;;;;;;;;4996282;28;20423;-77
2022/03/12 04:58:23;;;;;;;29.37;20.23;;;;;;;;;;4978552;28;20440;-79
2022/03/12 05:00:49;;;;;;;28.40;21.60;;;;;;;;;;4979085;28;20457;-79
2022/03/12 05:03:17;;;;;;;38.23;21.93;;;;;;;;;;4996087;28;20413;-78
2022/03/12 05:05:45;;;;;;;30.63;20.67;;;;;;;;;;4995901;28;20747;-79
2022/03/12 05:08:13;;;;;;;28.33;20.47;;;;;;;;;;4995241;28;20397;-80
2022/03/12 05:10:39;;;;;;;31.00;21.10;;;;;;;;;;4996214;28;20384;-77
2022/03/12 05:13:05;;;;;;;26.20;20.73;;;;;;;;;;4997276;28;20902;-78
2022/03/12 05:15:37;;;;;;;35.83;21.03;;;;;;;;;;4998431;28;20392;-75
2022/03/12 05:18:07;;;;;;;29.60;21.03;;;;;;;;;;4995944;28;20442;-77
2022/03/12 05:20:34;;;;;;;33.80;22.30;;;;;;;;;;4996092;28;20401;-80
2022/03/12 05:23:00;;;;;;;32.90;21.43;;;;;;;;;;4995785;28;20493;-78
2022/03/12 05:25:29;;;;;;;30.70;20.97;;;;;;;;;;4995854;28;20413;-79
2022/03/12 05:27:55;;;;;;;33.53;20.47;;;;;;;;;;4995660;28;20410;-80
2022/03/12 05:30:22;;;;;;;30.13;21.30;;;;;;;;;;4995528;28;20404;-77
2022/03/12 05:32:48;;;;;;;31.40;20.87;;;;;;;;;;4978030;28;20396;-78
2022/03/12 05:35:17;;;;;;;40.47;21.73;;;;;;;;;;4995556;28;20433;-80
2022/03/12 05:37:45;;;;;;;30.97;19.87;;;;;;;;;;4995653;28;20759;-77
2022/03/12 05:40:11;;;;;;;27.53;19.83;;;;;;;;;;4995466;28;20429;-78
2022/03/12 05:42:38;;;;;;;30.27;18.60;;;;;;;;;;4995335;28;20446;-79
2022/03/12 05:45:08;;;;;;;26.40;18.80;;;;;;;;;;4995354;28;20550;-74
2022/03/12 05:47:34;;;;;;;28.13;19.80;;;;;;;;;;4995266;28;20418;-79
2022/03/12 05:50:01;;;;;;;26.17;18.53;;;;;;;;;;4977735;28;20430;-79
2022/03/12 05:52:27;;;;;;;24.13;19.53;;;;;;;;;;4995113;28;20493;-74
2022/03/12 05:54:53;;;;;;;27.37;19.27;;;;;;;;;;4995110;28;20376;-75
2022/03/12 05:57:19;;;;;;;24.00;18.30;;;;;;;;;;4995126;28;20402;-79
2022/03/12 05:59:49;;;;;;;22.93;18.53;;;;;;;;;;4994899;28;20573;-75
2022/03/12 06:02:16;;;;;;;23.03;16.33;;;;;;;;;;4977626;28;20452;-77
2022/03/12 06:04:42;;;;;;;31.27;19.10;;;;;;;;;;4994988;28;20484;-78
2022/03/12 06:07:09;;;;;;;66.50;41.97;;;;;;;;;;4994804;28;20465;-77
2022/03/12 06:09:35;;;;;;;37.90;24.10;;;;;;;;;;4995129;28;20413;-75
2022/03/12 06:12:02;;;;;;;29.33;20.00;;;;;;;;;;4994943;28;20816;-79
2022/03/12 06:14:30;;;;;;;25.93;19.07;;;;;;;;;;4994714;28;20400;-80
2022/03/12 06:16:56;;;;;;;26.33;19.70;;;;;;;;;;4994957;28;20406;-78
2022/03/12 06:19:23;;;;;;;33.77;19.80;;;;;;;;;;4994468;28;20444;-79
2022/03/12 06:21:49;;;;;;;28.53;19.00;;;;;;;;;;4994652;28;20384;-78
2022/03/12 06:24:15;;;;;;;30.33;20.83;;;;;;;;;;4977159;28;20511;-79
2022/03/12 06:26:44;;;;;;;29.87;21.17;;;;;;;;;;4994581;28;20387;-77
2022/03/12 06:29:13;;;;;;;33.77;23.10;;;;;;;;;;4994514;28;20479;-69
2022/03/12 06:31:40;;;;;;;40.03;22.30;;;;;;;;;;4994722;28;20384;-69
2022/03/12 06:34:09;;;;;;;28.70;21.43;;;;;;;;;;4994658;28;20414;-74
2022/03/12 06:36:37;;;;;;;34.07;23.20;;;;;;;;;;4994400;28;20940;-74
2022/03/12 06:39:03;;;;;;;29.40;21.53;;;;;;;;;;4976852;28;21329;-76
2022/03/12 06:41:30;;;;;;;27.70;20.60;;;;;;;;;;4994347;28;20456;-74
2022/03/12 06:43:57;;;;;;;26.67;19.80;;;;;;;;;;4976926;28;20834;-74
2022/03/12 06:46:25;;;;;;;28.00;20.80;;;;;;;;;;4994193;28;20507;-73
2022/03/12 06:48:51;;;;;;;38.60;20.23;;;;;;;;;;4994313;28;20445;-75
2022/03/12 06:51:17;;;;;;;32.40;21.07;;;;;;;;;;4994122;28;20409;-70
2022/03/12 06:53:44;;;;;;;30.93;20.13;;;;;;;;;;4994176;28;20774;-70
2022/03/12 06:56:10;;;;;;;28.20;21.30;;;;;;;;;;4994243;28;20427;-72
2022/03/12 06:58:37;;;;;;;27.00;20.67;;;;;;;;;;4993969;28;20589;-71
2022/03/12 07:01:03;;;;;;;31.77;20.53;;;;;;;;;;4994257;28;20413;-71
2022/03/12 07:03:29;;;;;;;31.53;21.20;;;;;;;;;;4993959;28;20456;-71
2022/03/12 07:05:55;;;;;;;36.83;22.47;;;;;;;;;;4993799;28;20507;-71
2022/03/12 07:08:22;;;;;;;35.20;23.10;;;;;;;;;;4994068;28;20417;-71
2022/03/12 07:10:49;;;;;;;27.93;21.00;;;;;;;;;;4993980;28;20391;-70
2022/03/12 07:13:16;;;;;;;35.53;20.57;;;;;;;;;;4994025;28;20407;-71
2022/03/12 07:15:42;;;;;;;29.07;21.10;;;;;;;;;;4993908;28;20414;-71
2022/03/12 07:18:08;;;;;;;37.33;21.43;;;;;;;;;;4993836;28;20499;-70
2022/03/12 07:20:34;;;;;;;21.93;18.07;;;;;;;;;;4993908;28;20453;-70
2022/03/12 07:23:00;;;;;;;21.20;18.00;;;;;;;;;;4993920;28;20507;-71
2022/03/12 07:25:27;;;;;;;22.13;17.70;;;;;;;;;;4993872;28;20380;-71
2022/03/12 07:27:54;;;;;;;119.37;83.57;;;;;;;;;;4993842;28;20773;-71
2022/03/12 07:30:21;;;;;;;37.77;24.23;;;;;;;;;;4993782;28;20425;-71
2022/03/12 07:32:47;;;;;;;19.83;16.50;;;;;;;;;;4997376;28;20401;-72
2022/03/12 07:35:15;;;;;;;31.50;17.93;;;;;;;;;;4980151;28;20430;-72
2022/03/12 07:37:42;;;;;;;25.17;18.03;;;;;;;;;;4997746;28;20473;-72
2022/03/12 07:40:09;;;;;;;24.23;17.43;;;;;;;;;;4997573;28;20456;-73
2022/03/12 07:42:36;;;;;;;20.00;15.33;;;;;;;;;;4978807;28;20457;-71
2022/03/12 07:45:02;;;;;;;19.73;16.00;;;;;;;;;;4993446;28;20433;-70
2022/03/12 07:47:28;;;;;;;24.53;15.90;;;;;;;;;;4995918;28;20988;-69
2022/03/12 07:49:54;;;;;;;23.63;17.10;;;;;;;;;;4997308;28;20493;-70
2022/03/12 07:52:20;;;;;;;21.10;15.03;;;;;;;;;;4997367;28;20796;-70
2022/03/12 07:54:46;;;;;;;20.67;16.60;;;;;;;;;;4997359;28;20413;-70
2022/03/12 07:57:13;;;;;;;20.90;16.90;;;;;;;;;;4997324;28;20413;-70
2022/03/12 07:59:39;;;;;;;30.33;18.47;;;;;;;;;;4997117;28;20477;-70
2022/03/12 08:02:06;;;;;;;25.20;20.17;;;;;;;;;;4997215;28;20485;-70
2022/03/12 08:04:33;;;;;;;28.60;18.90;;;;;;;;;;4997241;28;20433;-70
2022/03/12 08:07:02;;;;;;;30.30;19.20;;;;;;;;;;4979527;28;20535;-70
2022/03/12 08:09:31;;;;;;;25.17;18.97;;;;;;;;;;4979633;28;20441;-70
2022/03/12 08:11:58;;;;;;;24.97;18.27;;;;;;;;;;4997036;28;20441;-70
2022/03/12 08:14:24;;;;;;;26.03;18.90;;;;;;;;;;4997200;28;20468;-70
2022/03/12 08:16:52;;;;;;;23.43;17.50;;;;;;;;;;4996906;28;20413;-70
2022/03/12 08:19:19;;;;;;;18.70;15.03;;;;;;;;;;4997064;28;20484;-70
2022/03/12 08:21:45;;;;;;;45.73;29.93;;;;;;;;;;4996800;28;20398;-70
2022/03/12 08:24:15;;;;;;;31.23;19.13;;;;;;;;;;4996818;28;20406;-70
2022/03/12 08:26:42;;;;;;;26.20;18.40;;;;;;;;;;4996986;28;20495;-70
2022/03/12 08:29:10;;;;;;;26.63;17.03;;;;;;;;;;4996916;28;20409;-70
2022/03/12 08:31:36;;;;;;;20.00;15.40;;;;;;;;;;4996675;28;20402;-70
2022/03/12 08:34:03;;;;;;;18.17;15.23;;;;;;;;;;4996891;28;20417;-70
2022/03/12 08:36:29;;;;;;;23.47;15.53;;;;;;;;;;4996581;28;20417;-70
2022/03/12 08:38:55;;;;;;;17.63;14.30;;;;;;;;;;4996500;28;20472;-70
2022/03/12 08:41:22;;;;;;;18.70;13.90;;;;;;;;;;4996601;28;20485;-70
2022/03/12 08:43:49;;;;;;;19.23;14.37;;;;;;;;;;4977869;28;20507;-69
2022/03/12 08:46:15;;;;;;;16.40;14.53;;;;;;;;;;4996349;28;20417;-70
2022/03/12 08:48:41;;;;;;;25.70;15.70;;;;;;;;;;4996251;28;20405;-70
2022/03/12 08:51:07;;;;;;;19.43;16.40;;;;;;;;;;4996322;28;20402;-70
2022/03/12 08:53:34;;;;;;;21.40;16.73;;;;;;;;;;4996134;28;20422;-70
2022/03/12 08:56:00;;;;;;;18.10;16.17;;;;;;;;;;4996014;28;20398;-70
2022/03/12 08:58:27;;;;;;;22.27;16.83;;;;;;;;;;4995999;28;20469;-70
2022/03/12 09:00:53;;;;;;;25.30;16.07;;;;;;;;;;4996031;28;20512;-70
2022/03/12 09:03:20;;;;;;;19.83;14.57;;;;;;;;;;4978390;28;20439;-70
2022/03/12 09:05:47;;;;;;;17.30;15.10;;;;;;;;;;4995777;28;20460;-70
2022/03/12 09:08:15;;;;;;;18.53;14.30;;;;;;;;;;4995888;28;20422;-69
2022/03/12 09:10:41;;;;;;;17.80;13.17;;;;;;;;;;4995842;28;20410;-70
2022/03/12 09:13:11;;;;;;;19.37;14.53;;;;;;;;;;4995688;28;20790;-70
2022/03/12 09:15:37;;;;;;;14.87;13.20;;;;;;;;;;4995608;28;20920;-69
2022/03/12 09:18:03;;;;;;;18.50;13.30;;;;;;;;;;4995757;28;20465;-70
2022/03/12 09:20:29;;;;;;;17.83;13.93;;;;;;;;;;4995775;28;20417;-70
2022/03/12 09:22:55;;;;;;;17.60;13.90;;;;;;;;;;4995679;28;20425;-70
2022/03/12 09:25:21;;;;;;;15.63;12.50;;;;;;;;;;4995657;28;20406;-69
2022/03/12 09:27:48;;;;;;;19.30;13.47;;;;;;;;;;4978108;28;20833;-69
2022/03/12 09:30:15;;;;;;;14.00;12.13;;;;;;;;;;4995563;28;20421;-69
2022/03/12 09:32:41;;;;;;;19.20;13.13;;;;;;;;;;4995339;28;20772;-69
2022/03/12 09:35:08;;;;;;;14.00;11.30;;;;;;;;;;4995369;28;20452;-69
2022/03/12 09:37:38;;;;;;;13.57;12.23;;;;;;;;;;4995448;28;20402;-69
2022/03/12 09:40:04;;;;;;;15.27;12.80;;;;;;;;;;4995298;28;20480;-69
2022/03/12 09:42:30;;;;;;;17.53;12.17;;;;;;;;;;4995210;28;20488;-69
2022/03/12 09:44:57;;;;;;;17.30;12.57;;;;;;;;;;4995202;28;20426;-69
2022/03/12 09:47:23;;;;;;;13.90;12.43;;;;;;;;;;4995346;28;20428;-69
2022/03/12 09:49:49;;;;;;;13.10;11.70;;;;;;;;;;4995064;28;20410;-69
2022/03/12 09:52:17;;;;;;;12.30;11.10;;;;;;;;;;4995153;28;20402;-70
2022/03/12 09:54:43;;;;;;;18.27;11.57;;;;;;;;;;4994641;28;20460;-70
2022/03/12 09:57:09;;;;;;;13.43;11.53;;;;;;;;;;4977533;28;20433;-69
2022/03/12 09:59:35;;;;;;;14.00;12.20;;;;;;;;;;4994816;28;20532;-69
2022/03/12 10:02:02;;;;;;;12.57;11.27;;;;;;;;;;4994963;28;20413;-70
2022/03/12 10:04:28;;;;;;;14.50;13.00;;;;;;;;;;4994849;28;20446;-70
2022/03/12 10:06:55;;;;;;;13.97;12.30;;;;;;;;;;4994729;28;20962;-69
2022/03/12 10:09:22;;;;;;;14.80;13.17;;;;;;;;;;4995107;28;20548;-69
2022/03/12 10:11:50;;;;;;;22.07;17.43;;;;;;;;;;4994528;28;20402;-69
2022/03/12 10:14:16;;;;;;;26.37;15.70;;;;;;;;;;4994714;28;20421;-75
2022/03/12 10:16:42;;;;;;;20.97;17.10;;;;;;;;;;4994754;28;20418;-68
2022/03/12 10:19:08;;;;;;;19.73;15.77;;;;;;;;;;4994526;28;20461;-68
2022/03/12 10:21:37;;;;;;;19.60;16.97;;;;;;;;;;4994593;28;20410;-67
2022/03/12 10:24:07;;;;;;;17.63;15.83;;;;;;;;;;4994476;28;20923;-66
2022/03/12 10:26:33;;;;;;;17.90;16.00;;;;;;;;;;4994728;28;20485;-68
2022/03/12 10:28:59;;;;;;;19.20;15.50;;;;;;;;;;4994537;28;20979;-66
2022/03/12 10:31:27;;;;;;;15.03;13.10;;;;;;;;;;4994474;28;20979;-67
2022/03/12 10:33:53;;;;;;;21.43;13.80;;;;;;;;;;4994507;28;20407;-67
2022/03/12 10:36:19;;;;;;;16.13;12.53;;;;;;;;;;4994362;28;20455;-67
2022/03/12 10:38:49;;;;;;;15.33;13.67;;;;;;;;;;4976925;28;20460;-67
2022/03/12 10:41:16;;;;;;;14.07;12.57;;;;;;;;;;4994378;28;20416;-68
2022/03/12 10:43:43;;;;;;;13.10;11.83;;;;;;;;;;4976900;28;20415;-69
2022/03/12 10:46:10;;;;;;;13.60;12.30;;;;;;;;;;4994548;28;20894;-68
2022/03/12 10:48:39;;;;;;;15.80;12.60;;;;;;;;;;4994492;28;20413;-68
2022/03/12 10:51:05;;;;;;;12.90;11.60;;;;;;;;;;4994173;28;20892;-68
2022/03/12 10:53:31;;;;;;;12.97;11.63;;;;;;;;;;4994231;28;20402;-68
2022/03/12 10:55:58;;;;;;;19.47;11.60;;;;;;;;;;4994362;28;20413;-68
2022/03/12 10:58:25;;;;;;;12.87;11.60;;;;;;;;;;4976685;28;20483;-68
2022/03/12 11:00:55;;;;;;;13.40;12.10;;;;;;;;;;4976666;28;20472;-67
2022/03/12 11:03:25;;;;;;;15.33;12.87;;;;;;;;;;4976545;28;20429;-67
2022/03/12 11:05:52;;;;;;;13.57;12.17;;;;;;;;;;4975595;28;20560;-67
2022/03/12 11:08:20;;;;;;;15.83;12.13;;;;;;;;;;4993931;28;20411;-68
2022/03/12 11:11:01;;;;;;;14.40;13.00;;;;;;;;;;4994033;28;20777;-69
2022/03/12 11:13:41;;;;;;;18.37;12.43;;;;;;;;;;4993817;28;20406;-68
2022/03/12 11:16:28;;;;;;;14.83;13.37;;;;;;;;;;4993595;28;20804;-68
2022/03/12 11:18:54;;;;;;;16.93;13.40;;;;;;;;;;4993770;28;20473;-69
2022/03/12 11:21:33;;;;;;;17.97;14.60;;;;;;;;;;4976507;28;20910;-68
2022/03/12 11:24:00;;;;;;;15.57;13.97;;;;;;;;;;4993924;28;20497;-67
2022/03/12 11:26:27;;;;;;;14.20;12.77;;;;;;;;;;4994160;28;20396;-68
2022/03/12 11:28:58;;;;;;;13.73;12.37;;;;;;;;;;4993859;28;20415;-68
2022/03/12 11:31:43;;;;;;;13.63;12.50;;;;;;;;;;4976226;28;20536;-66
2022/03/12 11:34:13;;;;;;;14.20;12.77;;;;;;;;;;4993989;28;20421;-67
2022/03/12 11:36:42;;;;;;;17.40;13.97;;;;;;;;;;4993931;28;20456;-69
2022/03/12 11:39:08;;;;;;;15.60;13.97;;;;;;;;;;4993889;28;20581;-69
2022/03/12 11:41:37;;;;;;;15.17;13.80;;;;;;;;;;4993972;28;20445;-68
2022/03/12 11:44:07;;;;;;;13.40;12.20;;;;;;;;;;4993692;28;20448;-68
2022/03/12 11:46:33;;;;;;;22.53;20.27;;;;;;;;;;4993632;28;20424;-69
2022/03/12 11:49:00;;;;;;;19.20;17.37;;;;;;;;;;4993622;28;20511;-68
2022/03/12 11:51:27;;;;;;;16.30;14.00;;;;;;;;;;4993616;28;20440;-68
2022/03/12 11:53:54;;;;;;;14.80;13.50;;;;;;;;;;4993648;28;20408;-68
2022/03/12 11:56:24;;;;;;;15.37;13.83;;;;;;;;;;4993564;28;20405;-68
2022/03/12 11:58:50;;;;;;;12.33;11.40;;;;;;;;;;4993316;28;20500;-67
2022/03/12 12:01:20;;;;;;;13.43;12.23;;;;;;;;;;4993447;28;20503;-68
2022/03/12 12:03:46;;;;;;;13.13;11.83;;;;;;;;;;4993539;28;20409;-69
2022/03/12 12:06:13;;;;;;;14.50;13.00;;;;;;;;;;4993472;28;20950;-69
2022/03/12 12:08:39;;;;;;;15.57;11.83;;;;;;;;;;4993414;28;20408;-68
2022/03/12 12:11:06;;;;;;;13.10;12.10;;;;;;;;;;4993619;28;20444;-69
2022/03/12 12:13:33;;;;;;;16.77;15.10;;;;;;;;;;4993468;28;20403;-69
2022/03/12 12:15:59;;;;;;;13.83;12.57;;;;;;;;;;4993417;28;20463;-67
2022/03/12 12:18:25;;;;;;;13.50;12.40;;;;;;;;;;4996162;28;20519;-68
2022/03/12 12:20:51;;;;;;;15.33;13.87;;;;;;;;;;4996956;28;20421;-67
2022/03/12 12:23:18;;;;;;;13.83;12.63;;;;;;;;;;4996902;28;20403;-67
2022/03/12 12:25:45;;;;;;;14.73;13.17;;;;;;;;;;4996755;28;20905;-67
2022/03/12 12:28:19;;;;;;;17.07;14.37;;;;;;;;;;4996707;28;20527;-68
2022/03/12 12:30:46;;;;;;;14.23;12.90;;;;;;;;;;4996863;28;20429;-66
2022/03/12 12:33:22;;;;;;;17.27;13.00;;;;;;;;;;4996656;28;20405;-66
2022/03/12 12:35:53;;;;;;;16.17;12.83;;;;;;;;;;4996477;28;20411;-66
2022/03/12 12:38:21;;;;;;;15.87;14.27;;;;;;;;;;4996447;28;20456;-66
2022/03/12 12:40:47;;;;;;;15.13;12.67;;;;;;;;;;4996429;28;20418;-66
2022/03/12 12:43:14;;;;;;;14.23;13.03;;;;;;;;;;4996443;28;20410;-67
2022/03/12 12:46:01;;;;;;;13.67;12.37;;;;;;;;;;4996662;28;20455;-69
2022/03/12 12:48:28;;;;;;;13.73;12.00;;;;;;;;;;4996388;28;20417;-69
2022/03/12 12:51:00;;;;;;;15.00;13.50;;;;;;;;;;4996289;28;20412;-69
2022/03/12 12:53:35;;;;;;;19.10;13.93;;;;;;;;;;4996261;28;20405;-71
2022/03/12 12:56:19;;;;;;;14.03;12.53;;;;;;;;;;4996232;28;20476;-69
2022/03/12 12:59:06;;;;;;;15.17;13.57;;;;;;;;;;4996373;28;20478;-71
2022/03/12 13:01:36;;;;;;;15.23;12.80;;;;;;;;;;4996147;28;20423;-70
2022/03/12 13:04:04;;;;;;;14.60;13.07;;;;;;;;;;4996034;28;20496;-69
2022/03/12 13:06:36;;;;;;;17.80;13.17;;;;;;;;;;4995863;28;20465;-70
2022/03/12 13:09:08;;;;;;;14.10;12.80;;;;;;;;;;4996022;28;20465;-70
2022/03/12 13:11:35;;;;;;;13.40;12.17;;;;;;;;;;4996081;28;20398;-70
2022/03/12 13:14:03;;;;;;;12.97;11.87;;;;;;;;;;4995975;28;20415;-69
2022/03/12 13:16:47;;;;;;;15.07;13.33;;;;;;;;;;4995813;28;20828;-71
2022/03/12 13:19:27;;;;;;;14.53;13.13;;;;;;;;;;4995910;28;20474;-72
2022/03/12 13:21:59;;;;;;;17.00;12.40;;;;;;;;;;4995647;28;20402;-70
2022/03/12 13:24:29;;;;;;;14.80;13.50;;;;;;;;;;4995229;28;20470;-67
2022/03/12 13:26:55;;;;;;;13.77;12.53;;;;;;;;;;4995798;28;20414;-66
2022/03/12 13:29:22;;;;;;;20.83;13.00;;;;;;;;;;4994835;28;20414;-69
2022/03/12 13:31:49;;;;;;;14.77;13.30;;;;;;;;;;4995574;28;20458;-71
2022/03/12 13:34:15;;;;;;;13.50;12.33;;;;;;;;;;4995532;28;20414;-73
2022/03/12 13:36:44;;;;;;;14.53;12.50;;;;;;;;;;4995380;28;20969;-70
2022/03/12 13:39:11;;;;;;;12.90;11.70;;;;;;;;;;4995332;28;20520;-71
2022/03/12 13:41:38;;;;;;;13.03;11.83;;;;;;;;;;4995606;28;20407;-70
2022/03/12 13:44:04;;;;;;;14.67;13.23;;;;;;;;;;4995275;28;20413;-71
2022/03/12 13:46:32;;;;;;;19.77;15.87;;;;;;;;;;4995314;28;20789;-70
2022/03/12 13:48:59;;;;;;;18.63;13.43;;;;;;;;;;4995314;28;20437;-71
2022/03/12 13:51:25;;;;;;;13.87;12.57;;;;;;;;;;4995501;28;20417;-71
2022/03/12 13:53:55;;;;;;;15.37;13.87;;;;;;;;;;4995237;28;20418;-70
2022/03/12 13:56:23;;;;;;;14.30;12.80;;;;;;;;;;4995467;28;20437;-72
2022/03/12 13:58:50;;;;;;;15.43;12.53;;;;;;;;;;4994974;28;20477;-70
2022/03/12 14:01:29;;;;;;;13.93;12.63;;;;;;;;;;4994982;28;20553;-70
2022/03/12 14:03:55;;;;;;;19.93;13.50;;;;;;;;;;4995070;28;20966;-71
2022/03/12 14:06:34;;;;;;;14.63;13.23;;;;;;;;;;4994718;28;20548;-71
2022/03/12 14:09:01;;;;;;;14.50;13.00;;;;;;;;;;4994891;28;20434;-70
2022/03/12 14:11:35;;;;;;;13.70;12.40;;;;;;;;;;4994893;28;20395;-70
2022/03/12 14:14:02;;;;;;;15.43;13.60;;;;;;;;;;4994797;28;20446;-70
2022/03/12 14:16:28;;;;;;;15.67;14.13;;;;;;;;;;4994730;28;20408;-72
2022/03/12 14:19:03;;;;;;;15.93;14.13;;;;;;;;;;4994645;28;20475;-72